createdAt,value
2022-08-26T00:04:14.477Z,42.20
2022-08-26T00:09:16.735Z,42.40
2022-08-26T00:16:47.908Z,42.60
2022-08-26T00:19:17.936Z,42.60
2022-08-26T00:21:46.124Z,42.70
2022-08-26T00:24:13.339Z,43.00
2022-08-26T00:29:09.447Z,42.90
2022-08-26T00:46:29.362Z,43.40
2022-08-26T00:49:12.074Z,43.50
2022-08-26T00:51:50.702Z,43.60
2022-08-26T00:54:21.067Z,43.60
2022-08-26T00:59:17.825Z,43.90
2022-08-26T01:01:46.063Z,43.80
2022-08-26T01:04:17.410Z,43.90
2022-08-26T01:06:45.524Z,43.90
2022-08-26T01:11:40.879Z,44.00
2022-08-26T01:14:09.158Z,44.00
2022-08-26T01:16:36.662Z,44.10
2022-08-26T01:19:16.113Z,44.20
2022-08-26T01:21:53.922Z,44.20
2022-08-26T01:24:20.903Z,44.20
2022-08-26T01:26:48.753Z,44.30
2022-08-26T01:29:20.172Z,44.40
2022-08-26T01:31:51.278Z,44.40
2022-08-26T01:34:20.960Z,44.50
2022-08-26T01:36:51.549Z,44.70
2022-08-26T01:39:19.313Z,44.70
2022-08-26T01:41:47.502Z,44.70
2022-08-26T01:44:23.631Z,44.70
2022-08-26T01:49:20.879Z,44.70
2022-08-26T01:51:51.099Z,44.70
2022-08-26T01:56:48.445Z,44.80
2022-08-26T01:59:18.552Z,44.80
2022-08-26T02:01:47.663Z,44.90
2022-08-26T02:06:43.027Z,45.10
2022-08-26T02:09:11.481Z,45.00
2022-08-26T02:14:11.683Z,45.20
2022-08-26T02:16:42.917Z,45.20
2022-08-26T02:19:16.961Z,45.30
2022-08-26T02:21:45.989Z,45.40
2022-08-26T02:24:27.336Z,45.40
2022-08-26T02:26:57.336Z,45.40
2022-08-26T02:29:31.666Z,45.50
2022-08-26T02:34:35.034Z,45.60
2022-08-26T02:37:08.110Z,45.60
2022-08-26T02:39:38.406Z,45.60
2022-08-26T02:42:05.601Z,45.70
2022-08-26T02:49:30.386Z,46.00
2022-08-26T03:06:53.445Z,46.30
2022-08-26T03:09:22.633Z,46.40
2022-08-26T03:14:17.911Z,46.50
2022-08-26T03:21:44.979Z,46.60
2022-08-26T03:24:15.320Z,46.60
2022-08-26T03:34:33.501Z,46.80
2022-08-26T03:37:00.713Z,46.80
2022-08-26T03:49:22.273Z,47.00
2022-08-26T03:51:50.091Z,47.00
2022-08-26T03:56:46.445Z,47.10
2022-08-26T03:59:13.704Z,47.10
2022-08-26T04:04:08.069Z,47.30
2022-08-26T04:06:40.039Z,47.30
2022-08-26T04:09:11.370Z,47.40
2022-08-26T04:14:09.988Z,47.50
2022-08-26T04:16:37.213Z,47.60
2022-08-26T04:26:36.904Z,47.90
2022-08-26T04:29:07.994Z,48.50
2022-08-26T04:31:36.309Z,47.60
2022-08-26T04:34:04.753Z,47.70
2022-08-26T04:39:02.194Z,47.80
2022-08-26T04:41:31.573Z,47.90
2022-08-26T04:43:58.594Z,47.90
2022-08-26T04:46:26.074Z,47.90
2022-08-26T04:48:54.247Z,47.90
2022-08-26T04:51:27.418Z,48.00
2022-08-26T04:53:57.244Z,48.00
2022-08-26T04:56:30.605Z,48.00
2022-08-26T05:03:52.634Z,48.10
2022-08-26T05:13:43.546Z,48.30
2022-08-26T05:16:13.184Z,48.40
2022-08-26T05:18:43.485Z,48.50
2022-08-26T05:21:23.894Z,48.50
2022-08-26T05:23:52.478Z,48.50
2022-08-26T05:31:24.829Z,48.60
2022-08-26T05:33:52.526Z,48.60
2022-08-26T05:36:23.780Z,48.70
2022-08-26T05:38:55.207Z,48.70
2022-08-26T05:41:27.646Z,48.70
2022-08-26T05:44:02.424Z,48.80
2022-08-26T05:46:29.659Z,48.90
2022-08-26T05:48:57.566Z,49.00
2022-08-26T05:51:26.122Z,49.00
2022-08-26T05:56:27.738Z,49.10
2022-08-26T05:58:59.632Z,49.20
2022-08-26T06:01:28.497Z,49.20
2022-08-26T06:04:01.292Z,49.30
2022-08-26T06:06:33.067Z,49.50
2022-08-26T06:09:03.876Z,49.60
2022-08-26T06:11:33.029Z,49.60
2022-08-26T06:14:03.767Z,49.70
2022-08-26T06:16:38.267Z,49.70
2022-08-26T06:19:10.599Z,49.80
2022-08-26T06:21:40.465Z,49.70
2022-08-26T06:24:29.386Z,49.40
2022-08-26T06:27:03.103Z,49.30
2022-08-26T06:29:36.098Z,49.20
2022-08-26T06:32:04.576Z,49.10
2022-08-26T06:37:02.788Z,49.00
2022-08-26T06:39:31.322Z,48.90
2022-08-26T06:51:58.243Z,48.80
2022-08-26T06:54:25.955Z,48.90
2022-08-26T06:56:52.843Z,48.90
2022-08-26T07:01:47.936Z,48.90
2022-08-26T07:04:20.043Z,48.90
2022-08-26T07:09:22.517Z,48.90
2022-08-26T07:16:49.844Z,49.10
2022-08-26T07:19:27.570Z,49.10
2022-08-26T07:22:03.435Z,49.20
2022-08-26T07:24:31.501Z,49.40
2022-08-26T07:27:03.946Z,49.50
2022-08-26T07:39:25.465Z,49.80
2022-08-26T07:41:53.066Z,50.00
2022-08-26T07:49:24.320Z,49.70
2022-08-26T07:56:48.484Z,49.50
2022-08-26T07:59:16.999Z,49.60
2022-08-26T08:01:45.448Z,49.70
2022-08-26T08:04:14.784Z,49.80
2022-08-26T08:09:16.067Z,50.00
2022-08-26T08:11:44.788Z,50.00
2022-08-26T08:14:12.271Z,50.00
2022-08-26T08:16:45.922Z,50.10
2022-08-26T08:19:14.806Z,50.00
2022-08-26T08:21:46.421Z,50.00
2022-08-26T08:24:13.836Z,49.90
2022-08-26T08:26:41.317Z,50.10
2022-08-26T08:29:08.885Z,50.10
2022-08-26T08:42:11.025Z,50.20
2022-08-26T08:44:41.744Z,50.30
2022-08-26T08:47:33.868Z,50.40
2022-08-26T08:50:14.690Z,50.60
2022-08-26T08:52:45.295Z,50.80
2022-08-26T08:55:18.084Z,51.40
2022-08-26T09:00:22.280Z,52.20
2022-08-26T09:03:02.916Z,52.60
2022-08-26T09:05:43.393Z,53.00
2022-08-26T09:08:19.921Z,53.30
2022-08-26T09:10:56.008Z,53.50
2022-08-26T09:16:00.184Z,54.50
2022-08-26T09:18:48.173Z,55.10
2022-08-26T09:21:17.999Z,55.30
2022-08-26T09:23:49.134Z,55.50
2022-08-26T09:29:03.459Z,56.20
2022-08-26T09:31:36.099Z,56.20
2022-08-26T09:34:12.965Z,56.30
2022-08-26T09:36:50.366Z,56.40
2022-08-26T09:39:37.762Z,57.00
2022-08-26T09:42:20.900Z,57.20
2022-08-26T09:45:00.877Z,57.50
2022-08-26T09:50:23.414Z,58.10
2022-08-26T09:53:28.469Z,58.10
2022-08-26T09:56:21.281Z,58.20
2022-08-26T09:58:50.690Z,58.40
2022-08-26T10:01:30.163Z,58.70
2022-08-26T10:04:14.349Z,59.00
2022-08-26T10:06:59.643Z,59.10
2022-08-26T10:09:28.705Z,59.50
2022-08-26T10:12:00.546Z,59.60
2022-08-26T10:17:31.601Z,59.50
2022-08-26T10:20:27.350Z,59.70
2022-08-26T10:23:12.981Z,59.70
2022-08-26T10:26:03.843Z,60.00
2022-08-26T10:28:56.790Z,60.40
2022-08-26T10:31:46.782Z,60.30
2022-08-26T10:34:17.452Z,60.30
2022-08-26T10:37:15.013Z,60.60
2022-08-26T10:40:05.501Z,60.60
2022-08-26T10:42:38.745Z,60.50
2022-08-26T10:45:14.953Z,60.80
2022-08-26T10:47:57.441Z,61.00
2022-08-26T10:50:47.659Z,61.00
2022-08-26T10:53:32.742Z,61.00
2022-08-26T10:56:06.165Z,61.00
2022-08-26T11:04:09.681Z,60.90
2022-08-26T11:06:36.955Z,60.90
2022-08-26T11:09:08.673Z,60.80
2022-08-26T11:11:41.650Z,61.00
2022-08-26T11:14:23.461Z,60.90
2022-08-26T11:16:58.883Z,60.80
2022-08-26T11:19:59.689Z,60.30
2022-08-26T11:22:35.160Z,61.00
2022-08-26T11:25:11.497Z,60.70
2022-08-26T11:30:35.205Z,61.50
2022-08-26T11:33:02.037Z,61.30
2022-08-26T11:38:02.295Z,61.30
2022-08-26T11:40:38.474Z,61.30
2022-08-26T11:43:11.152Z,61.50
2022-08-26T11:45:41.896Z,61.60
2022-08-26T11:48:29.008Z,61.80
2022-08-26T11:51:05.317Z,61.80
2022-08-26T11:53:35.307Z,61.70
2022-08-26T11:56:13.060Z,61.70
2022-08-26T11:58:44.760Z,61.40
2022-08-26T12:01:21.434Z,61.30
2022-08-26T12:03:51.021Z,61.00
2022-08-26T12:06:28.721Z,60.10
2022-08-26T12:08:59.193Z,59.70
2022-08-26T12:11:32.988Z,59.30
2022-08-26T12:14:07.222Z,59.30
2022-08-26T12:16:39.619Z,59.30
2022-08-26T12:19:32.866Z,58.90
2022-08-26T12:22:29.535Z,58.80
2022-08-26T12:24:56.585Z,59.20
2022-08-26T12:27:31.781Z,58.20
2022-08-26T12:30:02.592Z,58.00
2022-08-26T12:32:31.459Z,57.60
2022-08-26T12:37:35.065Z,56.30
2022-08-26T12:40:44.573Z,55.90
2022-08-26T12:43:15.907Z,55.60
2022-08-26T12:45:55.565Z,54.90
2022-08-26T12:48:27.081Z,54.90
2022-08-26T12:53:24.152Z,54.30
2022-08-26T13:00:51.646Z,53.10
2022-08-26T13:03:43.759Z,52.70
2022-08-26T13:06:15.812Z,52.80
2022-08-26T13:08:48.473Z,52.80
2022-08-26T13:11:31.826Z,52.50
2022-08-26T13:14:07.877Z,52.50
2022-08-26T13:16:35.611Z,51.70
2022-08-26T13:19:05.566Z,51.40
2022-08-26T13:21:53.953Z,50.80
2022-08-26T13:24:25.992Z,49.50
2022-08-26T13:26:52.879Z,48.60
2022-08-26T13:29:19.905Z,48.00
2022-08-26T13:31:48.008Z,47.40
2022-08-26T13:34:19.111Z,46.90
2022-08-26T13:36:48.005Z,46.40
2022-08-26T13:39:15.033Z,45.80
2022-08-26T13:41:43.386Z,45.70
2022-08-26T13:44:11.126Z,45.70
2022-08-26T13:46:38.276Z,45.40
2022-08-26T13:49:05.499Z,45.00
2022-08-26T13:54:00.077Z,44.90
2022-08-26T13:56:29.694Z,44.50
2022-08-26T13:58:58.020Z,44.30
2022-08-26T14:03:53.030Z,43.30
2022-08-26T14:06:20.349Z,42.80
2022-08-26T14:08:48.071Z,42.40
2022-08-26T14:16:16.213Z,41.00
2022-08-26T14:18:47.292Z,40.70
2022-08-26T14:28:58.172Z,39.70
2022-08-26T14:36:33.679Z,39.70
2022-08-26T14:39:06.920Z,39.60
2022-08-26T14:41:37.157Z,39.40
2022-08-26T14:44:11.335Z,39.50
2022-08-26T14:46:45.380Z,39.90
2022-08-26T14:54:12.881Z,39.80
2022-08-26T14:56:53.968Z,40.20
2022-08-26T14:59:23.785Z,40.60
2022-08-26T15:04:19.239Z,40.60
2022-08-26T15:06:46.356Z,40.50
2022-08-26T15:09:13.788Z,40.50
2022-08-26T15:16:47.729Z,39.00
2022-08-26T15:34:06.335Z,38.20
2022-08-26T15:48:52.082Z,37.00
2022-08-26T15:51:25.697Z,36.90
2022-08-26T15:53:56.521Z,37.00
2022-08-26T15:56:28.014Z,37.00
2022-08-26T16:01:27.750Z,36.70
2022-08-26T16:03:55.649Z,36.60
2022-08-26T16:06:28.226Z,36.40
2022-08-26T16:08:56.302Z,36.40
2022-08-26T16:11:24.003Z,36.30
2022-08-26T16:21:19.452Z,36.00
2022-08-26T16:23:47.190Z,36.10
2022-08-26T16:26:20.513Z,36.10
2022-08-26T16:28:48.094Z,36.10
2022-08-26T16:31:15.834Z,36.10
2022-08-26T16:36:11.184Z,36.30
2022-08-26T16:38:38.947Z,36.40
2022-08-26T16:41:07.284Z,36.60
2022-08-26T16:43:34.605Z,36.80
2022-08-26T16:46:01.625Z,36.90
2022-08-26T16:50:55.847Z,37.00
2022-08-26T16:55:51.287Z,37.20
2022-08-26T16:58:21.066Z,37.30
2022-08-26T17:03:16.139Z,37.80
2022-08-26T17:18:00.156Z,38.80
2022-08-26T17:22:55.863Z,39.00
2022-08-26T17:25:29.439Z,39.10
2022-08-26T17:35:26.579Z,39.60
2022-08-26T17:37:56.084Z,39.70
2022-08-26T17:40:25.756Z,39.70
2022-08-26T17:42:53.057Z,39.90
2022-08-26T17:47:55.469Z,40.10
2022-08-26T17:50:23.766Z,40.30
2022-08-26T18:00:26.326Z,41.00
2022-08-26T18:02:54.906Z,41.20
2022-08-26T18:05:23.545Z,41.40
2022-08-26T18:07:51.447Z,41.60
2022-08-26T18:10:20.481Z,41.80
2022-08-26T18:15:16.528Z,42.10
2022-08-26T18:20:16.103Z,42.50
2022-08-26T18:22:44.139Z,42.70
2022-08-26T18:25:14.119Z,42.90
2022-08-26T18:30:16.426Z,43.20
2022-08-26T18:37:39.701Z,43.60
2022-08-26T18:40:10.224Z,43.70
2022-08-26T18:42:37.384Z,43.80
2022-08-26T18:45:06.465Z,44.00
2022-08-26T18:50:02.294Z,44.40
2022-08-26T18:57:24.942Z,44.80
2022-08-26T19:14:36.686Z,45.90
2022-08-26T19:17:04.357Z,46.00
2022-08-26T19:24:28.320Z,46.30
2022-08-26T19:26:58.387Z,46.50
2022-08-26T19:29:29.772Z,46.60
2022-08-26T19:36:53.204Z,46.60
2022-08-26T19:39:21.168Z,46.70
2022-08-26T19:44:35.908Z,46.80
2022-08-26T19:47:03.708Z,46.70
2022-08-26T20:01:47.556Z,46.90
2022-08-26T20:19:37.758Z,47.10
2022-08-26T20:22:05.556Z,46.90
2022-08-26T20:24:32.827Z,47.10
2022-08-26T20:29:32.833Z,47.10
2022-08-26T21:01:34.715Z,47.60
2022-08-26T21:11:46.675Z,47.70
2022-08-26T21:21:40.846Z,48.30
2022-08-26T21:24:08.420Z,48.10
2022-08-26T21:31:32.028Z,47.90
2022-08-26T21:41:23.811Z,48.30
2022-08-26T21:46:21.964Z,48.20
2022-08-26T22:01:21.434Z,48.30
2022-08-26T22:18:37.523Z,48.60
2022-08-26T22:26:01.243Z,48.80
2022-08-26T22:45:48.680Z,49.10
2022-08-26T22:48:18.796Z,49.00
2022-08-26T22:50:47.153Z,49.10
2022-08-26T23:03:07.851Z,49.30
2022-08-26T23:05:35.673Z,49.40
2022-08-26T23:32:48.302Z,50.00
2022-08-26T23:50:08.946Z,50.10
